createdAt,value
2023-02-09T00:01:48.167Z,85913.28
2023-02-09T00:04:51.130Z,85910.16
2023-02-09T00:07:53.837Z,85913.34
2023-02-09T00:10:56.689Z,85913.34
2023-02-09T00:13:59.131Z,85913.38
2023-02-09T00:17:02.577Z,85907.00
2023-02-09T00:20:07.220Z,85910.16
2023-02-09T00:23:10.350Z,85907.06
2023-02-09T00:26:12.838Z,85905.44
2023-02-09T00:29:17.301Z,85905.47
2023-02-09T00:32:19.800Z,85912.47
2023-02-09T00:35:22.889Z,85913.31
2023-02-09T00:38:25.744Z,85916.44
2023-02-09T00:41:47.854Z,85919.59
2023-02-09T00:44:50.484Z,85914.09
2023-02-09T00:47:53.679Z,85914.88
2023-02-09T00:50:56.313Z,85914.88
2023-02-09T00:53:59.410Z,85924.31
2023-02-09T00:57:05.574Z,85930.56
2023-02-09T01:00:12.061Z,85925.84
2023-02-09T01:03:14.731Z,85922.69
2023-02-09T01:06:17.793Z,85927.38
2023-02-09T01:09:20.244Z,85921.06
2023-02-09T01:12:23.001Z,85932.13
2023-02-09T01:15:25.570Z,85930.47
2023-02-09T01:18:28.435Z,85926.56
2023-02-09T01:21:32.602Z,85939.16
2023-02-09T01:24:36.311Z,85939.84
2023-02-09T01:27:38.920Z,85946.22
2023-02-09T01:30:41.676Z,85940.69
2023-02-09T01:33:44.306Z,85944.63
2023-02-09T01:36:48.476Z,85943.03
2023-02-09T01:39:51.214Z,85945.34
2023-02-09T01:42:53.983Z,85938.31
2023-02-09T01:45:57.106Z,85932.00
2023-02-09T01:49:20.282Z,85941.38
2023-02-09T01:52:28.024Z,85935.84
2023-02-09T01:55:35.428Z,85933.53
2023-02-09T01:58:38.978Z,85939.78
2023-02-09T02:01:43.208Z,85940.56
2023-02-09T02:04:46.798Z,85939.78
2023-02-09T02:08:04.794Z,85941.38
2023-02-09T02:11:08.827Z,85939.75
2023-02-09T02:14:35.502Z,85936.63
2023-02-09T02:18:03.112Z,85936.63
2023-02-09T02:21:56.441Z,85929.56
2023-02-09T02:25:20.731Z,85925.56
2023-02-09T02:28:47.535Z,85919.31
2023-02-09T02:32:02.267Z,85919.31
2023-02-09T02:35:32.405Z,85917.75
2023-02-09T02:38:44.142Z,85920.94
2023-02-09T02:42:14.768Z,85913.03
2023-02-09T02:45:20.074Z,85911.44
2023-02-09T02:48:22.434Z,85913.81
2023-02-09T02:51:31.663Z,85919.31
2023-02-09T02:54:42.652Z,85917.75
2023-02-09T02:57:51.323Z,85921.69
2023-02-09T03:00:57.544Z,85920.94
2023-02-09T03:04:03.713Z,85917.69
2023-02-09T03:07:07.622Z,85917.72
2023-02-09T03:10:27.931Z,85925.59
2023-02-09T03:13:30.291Z,85930.31
2023-02-09T03:16:54.041Z,85935.03
2023-02-09T03:20:10.996Z,85938.19
2023-02-09T03:23:40.574Z,85944.50
2023-02-09T03:26:50.992Z,85942.84
2023-02-09T03:29:57.960Z,85944.44
2023-02-09T03:33:02.394Z,85943.63
2023-02-09T03:36:18.734Z,85950.75
2023-02-09T03:39:21.087Z,85961.72
2023-02-09T03:42:23.785Z,85963.31
2023-02-09T04:31:24.324Z,86032.34
2023-02-09T04:34:27.274Z,86033.94
2023-02-09T04:37:29.781Z,86048.03
2023-02-09T04:40:32.543Z,86049.59
2023-02-09T04:43:34.999Z,86048.03
2023-02-09T04:46:37.775Z,86038.59
2023-02-09T04:49:42.601Z,86039.41
2023-02-09T04:52:45.351Z,86046.38
2023-02-09T04:55:48.574Z,86047.97
2023-02-09T04:59:10.023Z,86046.44
2023-02-09T05:02:12.645Z,86041.75
2023-02-09T05:05:15.512Z,86049.62
2023-02-09T05:08:17.865Z,86048.06
2023-02-09T05:11:20.673Z,86038.53
2023-02-09T05:14:23.222Z,86041.78
2023-02-09T05:17:25.916Z,86040.22
2023-02-09T05:20:28.331Z,86039.44
2023-02-09T05:23:31.398Z,86043.31
2023-02-09T05:26:33.838Z,86037.06
2023-02-09T05:29:36.482Z,86026.06
2023-02-09T05:32:39.878Z,86036.97
2023-02-09T05:35:42.505Z,86026.03
2023-02-09T05:38:44.843Z,86026.06
2023-02-09T05:42:06.407Z,86024.47
2023-02-09T05:45:09.761Z,86022.91
2023-02-09T05:48:12.451Z,86026.06
2023-02-09T05:51:14.927Z,86026.06
2023-02-09T05:54:17.711Z,86032.38
2023-02-09T05:57:20.142Z,86029.22
2023-02-09T06:00:25.114Z,86029.22
2023-02-09T06:03:27.960Z,86043.34
2023-02-09T06:06:30.494Z,86041.78
2023-02-09T06:09:33.409Z,86043.31
2023-02-09T06:12:35.816Z,86041.78
2023-02-09T06:15:38.723Z,86043.34
2023-02-09T06:18:41.091Z,86040.19
2023-02-09T06:21:44.477Z,86044.97
2023-02-09T06:24:46.913Z,86038.59
2023-02-09T06:27:49.743Z,86029.22
2023-02-09T06:30:53.956Z,86025.28
2023-02-09T06:33:57.057Z,86015.78
2023-02-09T06:36:59.502Z,86024.53
2023-02-09T06:40:08.459Z,86019.81
2023-02-09T06:43:10.822Z,86009.53
2023-02-09T06:46:13.947Z,86006.44
2023-02-09T06:49:16.549Z,86000.94
2023-02-09T06:52:19.476Z,86002.47
2023-02-09T06:55:21.808Z,86002.56
2023-02-09T06:58:24.556Z,86002.56
2023-02-09T07:01:27.218Z,86002.53
2023-02-09T07:04:29.933Z,86012.00
2023-02-09T07:07:32.436Z,86013.50
2023-02-09T07:10:35.697Z,86012.78
2023-02-09T07:13:38.924Z,86013.53
2023-02-09T07:16:41.817Z,86010.31
2023-02-09T07:19:44.261Z,86011.94
2023-02-09T07:22:47.100Z,85996.22
2023-02-09T07:25:49.657Z,85996.25
2023-02-09T07:28:52.527Z,85989.97
2023-02-09T07:31:55.084Z,85989.97
2023-02-09T07:34:58.576Z,85985.22
2023-02-09T07:38:00.962Z,85978.94
2023-02-09T07:41:05.712Z,85980.59
2023-02-09T07:44:09.764Z,85977.41
2023-02-09T07:47:12.809Z,85966.47
2023-02-09T07:50:15.314Z,85969.56
2023-02-09T07:53:18.460Z,85959.31
2023-02-09T07:56:21.797Z,85944.47
2023-02-09T07:59:24.633Z,85939.75
2023-02-09T08:02:34.688Z,85924.03
2023-02-09T08:05:48.964Z,85913.06
2023-02-09T08:08:52.726Z,85909.91
2023-02-09T08:12:03.268Z,85901.28
2023-02-09T08:15:06.518Z,85887.13
2023-02-09T08:18:15.343Z,85879.28
2023-02-09T08:21:18.790Z,85872.19
2023-02-09T08:24:21.779Z,85854.94
2023-02-09T08:27:24.218Z,85850.22
2023-02-09T08:30:26.960Z,85828.12
2023-02-09T08:33:29.459Z,85771.63
2023-02-09T08:36:32.205Z,85681.97
2023-02-09T08:39:34.623Z,85640.25
2023-02-09T08:42:37.631Z,85681.16
2023-02-09T08:45:42.486Z,85711.84
2023-02-09T08:48:47.438Z,85635.56
2023-02-09T08:51:49.762Z,85576.50
2023-02-09T08:54:52.468Z,85581.22
2023-02-09T08:57:54.853Z,85644.97
2023-02-09T09:00:59.258Z,85659.94
2023-02-09T09:04:02.140Z,85697.66
2023-02-09T09:07:05.073Z,85700.81
2023-02-09T09:10:09.727Z,85711.88
2023-02-09T09:13:12.805Z,85697.69
2023-02-09T09:16:20.780Z,85696.13
2023-02-09T09:19:23.777Z,85700.84
2023-02-09T09:22:26.249Z,85696.13
2023-02-09T09:25:28.921Z,85676.44
2023-02-09T09:28:31.393Z,85689.88
2023-02-09T09:31:34.424Z,85693.00
2023-02-09T09:34:36.928Z,85683.53
2023-02-09T09:37:41.197Z,85707.12
2023-02-09T09:40:45.817Z,85711.88
2023-02-09T09:43:49.453Z,85691.38
2023-02-09T09:46:54.916Z,85681.97
2023-02-09T09:49:57.705Z,85667.84
2023-02-09T09:53:17.120Z,85689.09
2023-02-09T09:56:21.417Z,85689.06
2023-02-09T09:59:28.730Z,85688.25
2023-02-09T10:02:34.368Z,85674.13
2023-02-09T10:05:39.456Z,85659.16
2023-02-09T10:09:04.372Z,85645.00
2023-02-09T10:12:39.891Z,85637.94
2023-02-09T10:15:50.042Z,85615.12
2023-02-09T10:18:56.404Z,85601.69
2023-02-09T10:21:58.924Z,85595.41
2023-02-09T10:25:36.973Z,85596.94
2023-02-09T10:28:54.526Z,85578.91
2023-02-09T10:32:04.451Z,85578.06
2023-02-09T10:35:26.067Z,85565.44
2023-02-09T10:38:33.499Z,85554.47
2023-02-09T10:41:36.423Z,85518.22
2023-02-09T10:44:40.408Z,85420.53
2023-02-09T10:47:56.314Z,85364.56
2023-02-09T10:51:01.690Z,85390.56
2023-02-09T10:54:07.527Z,85376.41
2023-02-09T10:57:22.723Z,85341.69
2023-02-09T11:00:36.925Z,85287.28
2023-02-09T11:04:00.577Z,85217.06
2023-02-09T11:07:10.588Z,85166.56
2023-02-09T11:10:13.915Z,85160.22
2023-02-09T11:13:23.654Z,85155.50
2023-02-09T11:17:08.332Z,85126.31
2023-02-09T11:20:17.448Z,85086.00
2023-02-09T11:23:36.471Z,85094.72
2023-02-09T11:26:53.620Z,85049.69
2023-02-09T11:30:15.479Z,85041.00
2023-02-09T11:33:17.902Z,85041.00
2023-02-09T11:36:51.772Z,85042.56
2023-02-09T11:40:15.967Z,85035.47
2023-02-09T11:43:39.415Z,85032.31
2023-02-09T11:46:42.855Z,85090.81
2023-02-09T11:49:51.648Z,85078.97
2023-02-09T11:53:01.893Z,85080.53
2023-02-09T11:56:07.931Z,85024.44
2023-02-09T11:59:29.923Z,85008.63
2023-02-09T12:02:52.454Z,85054.44
2023-02-09T12:05:58.210Z,85043.41
2023-02-09T12:09:31.665Z,85071.84
2023-02-09T12:12:44.036Z,85029.19
2023-02-09T12:15:56.184Z,85016.53
2023-02-09T12:18:59.234Z,85019.75
2023-02-09T12:22:43.408Z,85035.53
2023-02-09T12:26:01.253Z,84997.59
2023-02-09T12:29:38.012Z,84977.03
2023-02-09T12:32:44.987Z,84986.53
2023-02-09T12:36:09.317Z,84985.72
2023-02-09T12:39:25.828Z,85019.72
2023-02-09T12:42:38.186Z,85092.37
2023-02-09T12:45:45.281Z,85093.97
2023-02-09T12:49:02.615Z,85092.37
2023-02-09T12:52:15.968Z,85120.81
2023-02-09T12:55:22.504Z,85123.97
2023-02-09T12:58:54.595Z,85115.28
2023-02-09T13:02:06.088Z,85129.50
2023-02-09T13:05:41.762Z,85131.09
2023-02-09T13:08:50.026Z,85162.66
2023-02-09T13:12:11.078Z,85161.91
2023-02-09T13:15:17.180Z,85144.50
2023-02-09T13:18:56.340Z,85139.75
2023-02-09T13:22:20.297Z,85150.84
2023-02-09T13:25:41.180Z,85139.75
2023-02-09T13:28:44.143Z,85136.63
2023-02-09T13:32:25.786Z,85127.94
2023-02-09T13:35:34.663Z,85139.75
2023-02-09T13:38:41.291Z,85161.09
2023-02-09T13:41:44.742Z,85158.72
2023-02-09T13:44:51.044Z,85159.50
2023-02-09T13:47:54.807Z,85155.53
2023-02-09T13:51:00.515Z,85144.50
2023-02-09T13:54:03.505Z,85146.13
2023-02-09T13:57:11.792Z,85174.50
2023-02-09T14:00:24.323Z,85164.25
2023-02-09T14:03:35.648Z,85154.00
2023-02-09T14:06:49.214Z,85147.69
2023-02-09T14:10:16.903Z,85155.56
2023-02-09T14:13:44.296Z,85153.97
2023-02-09T14:16:53.414Z,85152.38
2023-02-09T14:19:58.489Z,85158.72
2023-02-09T14:23:01.823Z,85155.53
2023-02-09T14:26:20.924Z,85196.59
2023-02-09T14:29:33.737Z,85207.59
2023-02-09T14:32:40.524Z,85199.75
2023-02-09T14:35:43.176Z,85200.50
2023-02-09T14:38:47.968Z,85190.28
2023-02-09T14:42:08.822Z,85192.63
2023-02-09T14:45:14.759Z,85187.91
2023-02-09T14:48:25.793Z,85183.94
2023-02-09T14:51:28.705Z,85187.94
2023-02-09T14:54:35.102Z,85195.00
2023-02-09T14:57:38.874Z,85197.41
2023-02-09T15:00:41.275Z,85202.09
2023-02-09T15:03:44.006Z,85206.81
2023-02-09T15:06:52.314Z,85207.63
2023-02-09T15:09:54.942Z,85217.06
2023-02-09T15:12:58.462Z,85234.41
2023-02-09T15:16:01.144Z,85243.88
2023-02-09T15:19:05.415Z,85243.88
2023-02-09T15:22:08.775Z,85233.62
2023-02-09T15:25:13.701Z,85241.50
2023-02-09T15:28:28.708Z,85255.72
2023-02-09T15:31:31.597Z,85253.34
2023-02-09T15:34:34.393Z,85254.91
2023-02-09T15:37:40.080Z,85254.91
2023-02-09T15:41:03.752Z,85269.88
2023-02-09T15:44:36.781Z,85266.72
2023-02-09T15:47:48.531Z,85270.69
2023-02-09T15:50:51.595Z,85270.69
2023-02-09T15:53:56.522Z,85269.09
2023-02-09T15:57:00.865Z,85270.69
2023-02-09T16:00:09.081Z,85286.44
2023-02-09T16:03:17.354Z,85283.31
2023-02-09T16:06:27.078Z,85287.25
2023-02-09T16:09:30.945Z,85299.84
2023-02-09T16:12:33.394Z,85297.47
2023-02-09T16:15:36.621Z,85310.09
2023-02-09T16:18:39.003Z,85316.44
2023-02-09T16:21:44.818Z,85329.00
2023-02-09T16:24:47.443Z,85331.38
2023-02-09T16:27:52.263Z,85340.03
2023-02-09T16:30:57.712Z,85343.19
2023-02-09T16:34:00.580Z,85340.81
2023-02-09T16:37:03.968Z,85349.47
2023-02-09T16:40:22.997Z,85346.31
2023-02-09T16:43:25.537Z,85349.47
2023-02-09T16:46:30.717Z,85355.78
2023-02-09T16:49:42.039Z,85363.66
2023-02-09T16:52:45.160Z,85358.91
2023-02-09T16:55:49.577Z,85363.66
2023-02-09T16:58:52.897Z,85366.78
2023-02-09T17:01:55.616Z,85366.84
2023-02-09T17:04:59.262Z,85368.38
2023-02-09T17:08:07.989Z,85368.38
2023-02-09T17:11:19.997Z,85369.97
2023-02-09T17:14:22.365Z,85376.25
2023-02-09T17:17:25.129Z,85380.16
2023-02-09T17:20:51.336Z,85382.56
2023-02-09T17:23:55.106Z,85384.16
2023-02-09T17:26:57.610Z,85387.28
2023-02-09T17:30:00.256Z,85386.47
2023-02-09T17:33:05.704Z,85390.41
2023-02-09T17:36:25.933Z,85403.00
2023-02-09T17:39:30.823Z,85404.59
2023-02-09T17:42:36.736Z,85404.59
2023-02-09T17:45:39.555Z,85414.03
2023-02-09T17:48:42.537Z,85412.47
2023-02-09T17:51:46.358Z,85416.41
2023-02-09T17:54:50.927Z,85415.59
2023-02-09T17:57:58.381Z,85417.19
2023-02-09T18:01:01.476Z,85425.06
2023-02-09T18:04:04.433Z,85415.59
2023-02-09T18:07:07.031Z,85410.91
2023-02-09T18:10:09.951Z,85412.44
2023-02-09T18:13:18.332Z,85416.41
2023-02-09T18:16:21.084Z,85423.50
2023-02-09T18:19:24.651Z,85416.38
2023-02-09T18:22:27.652Z,85420.31
2023-02-09T18:25:34.487Z,85425.06
2023-02-09T18:28:38.295Z,85430.56
2023-02-09T18:31:40.973Z,85434.53
2023-02-09T18:34:43.913Z,85432.94
2023-02-09T18:37:47.190Z,85436.13
2023-02-09T18:40:51.677Z,85432.94
2023-02-09T18:43:54.665Z,85437.69
2023-02-09T18:47:00.697Z,85428.19
2023-02-09T18:50:04.781Z,85431.38
2023-02-09T18:53:07.491Z,85429.78
2023-02-09T18:56:20.579Z,85439.25
2023-02-09T18:59:27.707Z,85443.97
2023-02-09T19:02:30.108Z,85447.12
2023-02-09T19:05:34.540Z,85443.97
2023-02-09T19:08:38.220Z,85450.22
2023-02-09T19:11:41.031Z,85449.47
2023-02-09T19:14:45.802Z,85456.53
2023-02-09T19:17:48.845Z,85462.06
2023-02-09T19:20:55.596Z,85462.81
2023-02-09T19:23:58.351Z,85455.75
2023-02-09T19:27:00.826Z,85458.91
2023-02-09T19:30:03.837Z,85458.09
2023-02-09T19:33:06.327Z,85453.38
2023-02-09T19:36:09.530Z,85450.25
2023-02-09T19:39:12.018Z,85453.38
2023-02-09T19:42:15.532Z,85459.66
2023-02-09T19:45:18.207Z,85470.72
2023-02-09T19:48:20.902Z,85473.84
2023-02-09T19:51:24.069Z,85480.16
2023-02-09T19:54:26.907Z,85483.28
2023-02-09T19:57:29.440Z,85484.84
2023-02-09T20:00:32.214Z,85487.22
2023-02-09T20:03:36.240Z,85483.34
2023-02-09T20:06:38.786Z,85492.78
2023-02-09T20:09:41.878Z,85488.03
2023-02-09T20:15:48.443Z,85513.19
2023-02-09T20:18:52.523Z,85521.84
2023-02-09T20:21:55.940Z,85538.38
2023-02-09T20:24:58.328Z,85539.94
2023-02-09T20:28:01.117Z,85545.44
2023-02-09T20:31:03.961Z,85550.97
2023-02-09T20:34:11.884Z,85559.59
2023-02-09T20:37:14.215Z,85555.63
2023-02-09T20:40:17.089Z,85560.38
2023-02-09T20:43:37.935Z,85565.09
2023-02-09T20:46:41.004Z,85572.94
2023-02-09T20:49:43.370Z,85576.12
2023-02-09T20:52:46.307Z,85582.38
2023-02-09T20:55:51.177Z,85583.16
2023-02-09T20:58:54.128Z,85583.94
2023-02-09T21:01:57.220Z,85591.81
2023-02-09T21:04:59.960Z,85593.41
2023-02-09T21:08:04.476Z,85596.56
2023-02-09T21:11:07.618Z,85601.25
2023-02-09T21:14:21.785Z,85605.97
2023-02-09T21:17:30.573Z,85616.19
2023-02-09T21:20:34.846Z,85602.84
2023-02-09T21:23:37.503Z,85599.66
2023-02-09T21:26:41.383Z,85593.38
2023-02-09T21:29:44.053Z,85593.41
2023-02-09T21:32:46.604Z,85586.31
2023-02-09T21:35:50.472Z,85598.06
2023-02-09T21:38:52.930Z,85604.44
2023-02-09T21:42:14.229Z,85613.84
2023-02-09T21:45:17.012Z,85617.00
2023-02-09T21:48:19.929Z,85616.94
2023-02-09T21:51:23.416Z,85610.69
2023-02-09T21:54:29.685Z,85617.03
2023-02-09T21:57:32.230Z,85617.75
2023-02-09T22:00:34.990Z,85616.97
2023-02-09T22:03:39.261Z,85627.22
2023-02-09T22:06:41.950Z,85622.41
2023-02-09T22:09:44.773Z,85622.41
2023-02-09T22:12:47.159Z,85627.97
2023-02-09T22:15:49.780Z,85628.69
2023-02-09T22:18:52.975Z,85638.97
2023-02-09T22:21:57.987Z,85635.78
2023-02-09T22:25:00.407Z,85629.53
2023-02-09T22:28:04.226Z,85633.47
2023-02-09T22:31:17.573Z,85631.09
2023-02-09T22:34:20.417Z,85631.06
2023-02-09T22:37:22.731Z,85631.06
2023-02-09T22:40:25.414Z,85629.50
2023-02-09T22:43:27.880Z,85634.22
2023-02-09T22:46:32.863Z,85637.41
2023-02-09T22:49:36.500Z,85642.09
2023-02-09T22:52:39.256Z,85642.09
2023-02-09T22:55:41.697Z,85643.66
2023-02-09T22:58:44.828Z,85642.06
2023-02-09T23:01:47.955Z,85643.66
2023-02-09T23:04:50.697Z,85642.06
2023-02-09T23:07:53.060Z,85645.25
2023-02-09T23:11:02.123Z,85642.06
2023-02-09T23:14:12.405Z,85651.47
2023-02-09T23:17:15.145Z,85656.22
2023-02-09T23:20:17.859Z,85653.06
2023-02-09T23:23:20.565Z,85657.78
2023-02-09T23:26:24.259Z,85668.78
2023-02-09T23:29:28.151Z,85671.91
2023-02-09T23:32:30.626Z,85679.78
2023-02-09T23:35:33.295Z,85676.59
2023-02-09T23:38:35.710Z,85684.47
2023-02-09T23:41:38.447Z,85691.59
2023-02-09T23:44:40.806Z,85695.47
2023-02-09T23:47:43.627Z,85698.62
2023-02-09T23:50:46.257Z,85698.59
2023-02-09T23:53:48.923Z,85706.47
2023-02-09T23:56:52.484Z,85704.88
2023-02-09T23:59:55.148Z,85712.75
